sensor_id;sensor_type;location;lat;lon;timestamp;P1;durP1;ratioP1;P2;durP2;ratioP2
34775;SDS011;20989;52.566;13.346;2023-03-31T00:02:21;0.95;;;0.95;;
34775;SDS011;20989;52.566;13.346;2023-03-31T00:05:22;0.93;;;0.90;;
34775;SDS011;20989;52.566;13.346;2023-03-31T00:08:26;1.10;;;1.00;;
34775;SDS011;20989;52.566;13.346;2023-03-31T00:11:34;1.20;;;0.95;;
34775;SDS011;20989;52.566;13.346;2023-03-31T00:14:36;0.93;;;0.80;;
34775;SDS011;20989;52.566;13.346;2023-03-31T00:17:37;1.00;;;1.00;;
34775;SDS011;20989;52.566;13.346;2023-03-31T00:20:37;0.95;;;0.88;;
34775;SDS011;20989;52.566;13.346;2023-03-31T00:23:38;1.02;;;1.00;;
34775;SDS011;20989;52.566;13.346;2023-03-31T00:26:40;0.93;;;0.93;;
34775;SDS011;20989;52.566;13.346;2023-03-31T00:29:41;1.05;;;0.88;;
34775;SDS011;20989;52.566;13.346;2023-03-31T00:32:42;1.00;;;1.00;;
34775;SDS011;20989;52.566;13.346;2023-03-31T00:35:43;1.25;;;1.15;;
34775;SDS011;20989;52.566;13.346;2023-03-31T00:38:45;1.05;;;1.02;;
34775;SDS011;20989;52.566;13.346;2023-03-31T00:41:48;1.30;;;1.20;;
34775;SDS011;20989;52.566;13.346;2023-03-31T00:48:17;5.45;;;2.13;;
34775;SDS011;20989;52.566;13.346;2023-03-31T00:51:20;1.67;;;1.58;;
34775;SDS011;20989;52.566;13.346;2023-03-31T00:54:22;3.22;;;1.70;;
34775;SDS011;20989;52.566;13.346;2023-03-31T00:57:27;2.65;;;1.80;;
34775;SDS011;20989;52.566;13.346;2023-03-31T01:00:31;3.00;;;1.77;;
34775;SDS011;20989;52.566;13.346;2023-03-31T01:03:32;5.55;;;1.95;;
34775;SDS011;20989;52.566;13.346;2023-03-31T01:06:33;5.82;;;2.65;;
34775;SDS011;20989;52.566;13.346;2023-03-31T01:09:37;5.63;;;2.33;;
34775;SDS011;20989;52.566;13.346;2023-03-31T01:12:39;7.53;;;2.72;;
34775;SDS011;20989;52.566;13.346;2023-03-31T01:15:43;14.82;;;3.60;;
34775;SDS011;20989;52.566;13.346;2023-03-31T01:18:43;7.43;;;2.92;;
34775;SDS011;20989;52.566;13.346;2023-03-31T01:38:41;9.60;;;3.53;;
34775;SDS011;20989;52.566;13.346;2023-03-31T01:45:13;10.10;;;3.45;;
34775;SDS011;20989;52.566;13.346;2023-03-31T01:55:06;7.10;;;2.92;;
34775;SDS011;20989;52.566;13.346;2023-03-31T01:58:22;11.60;;;3.83;;
34775;SDS011;20989;52.566;13.346;2023-03-31T02:01:46;12.13;;;3.47;;
34775;SDS011;20989;52.566;13.346;2023-03-31T02:04:59;7.43;;;3.00;;
34775;SDS011;20989;52.566;13.346;2023-03-31T02:08:09;10.35;;;3.20;;
34775;SDS011;20989;52.566;13.346;2023-03-31T02:11:12;10.10;;;3.47;;
34775;SDS011;20989;52.566;13.346;2023-03-31T02:14:14;9.20;;;3.75;;
34775;SDS011;20989;52.566;13.346;2023-03-31T02:17:21;10.18;;;3.78;;
34775;SDS011;20989;52.566;13.346;2023-03-31T02:20:31;12.52;;;4.35;;
34775;SDS011;20989;52.566;13.346;2023-03-31T02:23:32;10.40;;;3.97;;
34775;SDS011;20989;52.566;13.346;2023-03-31T02:26:39;9.68;;;4.03;;
34775;SDS011;20989;52.566;13.346;2023-03-31T02:30:01;10.88;;;4.22;;
34775;SDS011;20989;52.566;13.346;2023-03-31T02:33:03;12.50;;;4.32;;
34775;SDS011;20989;52.566;13.346;2023-03-31T02:36:04;8.50;;;3.75;;
34775;SDS011;20989;52.566;13.346;2023-03-31T02:39:10;6.60;;;3.30;;
34775;SDS011;20989;52.566;13.346;2023-03-31T02:42:14;10.98;;;4.03;;
34775;SDS011;20989;52.566;13.346;2023-03-31T02:48:44;8.07;;;3.55;;
34775;SDS011;20989;52.566;13.346;2023-03-31T02:55:17;9.32;;;4.03;;
34775;SDS011;20989;52.566;13.346;2023-03-31T03:02:29;7.32;;;2.88;;
34775;SDS011;20989;52.566;13.346;2023-03-31T03:05:25;8.68;;;3.65;;
34775;SDS011;20989;52.566;13.346;2023-03-31T03:12:32;8.93;;;3.35;;
34775;SDS011;20989;52.566;13.346;2023-03-31T03:16:17;8.90;;;3.55;;
34775;SDS011;20989;52.566;13.346;2023-03-31T03:19:19;5.63;;;2.53;;
34775;SDS011;20989;52.566;13.346;2023-03-31T03:22:22;7.85;;;3.38;;
34775;SDS011;20989;52.566;13.346;2023-03-31T03:25:23;8.82;;;3.70;;
34775;SDS011;20989;52.566;13.346;2023-03-31T03:28:23;5.13;;;2.50;;
34775;SDS011;20989;52.566;13.346;2023-03-31T03:31:24;4.13;;;2.70;;
34775;SDS011;20989;52.566;13.346;2023-03-31T03:34:25;7.32;;;3.40;;
34775;SDS011;20989;52.566;13.346;2023-03-31T03:37:26;5.43;;;2.72;;
34775;SDS011;20989;52.566;13.346;2023-03-31T03:40:28;6.05;;;2.88;;
34775;SDS011;20989;52.566;13.346;2023-03-31T03:43:29;7.22;;;2.67;;
34775;SDS011;20989;52.566;13.346;2023-03-31T03:46:30;5.95;;;2.78;;
34775;SDS011;20989;52.566;13.346;2023-03-31T03:49:31;4.50;;;2.78;;
34775;SDS011;20989;52.566;13.346;2023-03-31T03:52:31;5.10;;;2.72;;
34775;SDS011;20989;52.566;13.346;2023-03-31T03:55:33;5.55;;;2.63;;
34775;SDS011;20989;52.566;13.346;2023-03-31T03:58:33;4.05;;;2.60;;
34775;SDS011;20989;52.566;13.346;2023-03-31T04:01:34;3.70;;;2.35;;
34775;SDS011;20989;52.566;13.346;2023-03-31T04:04:35;3.75;;;2.47;;
34775;SDS011;20989;52.566;13.346;2023-03-31T04:07:35;5.35;;;2.30;;
34775;SDS011;20989;52.566;13.346;2023-03-31T04:10:36;4.55;;;2.60;;
34775;SDS011;20989;52.566;13.346;2023-03-31T04:13:37;4.22;;;2.40;;
34775;SDS011;20989;52.566;13.346;2023-03-31T04:16:37;5.13;;;2.50;;
34775;SDS011;20989;52.566;13.346;2023-03-31T04:19:39;3.97;;;2.20;;
34775;SDS011;20989;52.566;13.346;2023-03-31T04:22:41;4.07;;;2.15;;
34775;SDS011;20989;52.566;13.346;2023-03-31T04:25:45;4.30;;;1.88;;
34775;SDS011;20989;52.566;13.346;2023-03-31T04:28:49;3.13;;;2.13;;
34775;SDS011;20989;52.566;13.346;2023-03-31T04:31:49;3.72;;;2.42;;
34775;SDS011;20989;52.566;13.346;2023-03-31T04:34:51;3.53;;;1.95;;
34775;SDS011;20989;52.566;13.346;2023-03-31T04:38:01;3.65;;;2.00;;
34775;SDS011;20989;52.566;13.346;2023-03-31T04:41:02;3.38;;;1.83;;
34775;SDS011;20989;52.566;13.346;2023-03-31T04:44:03;4.13;;;1.85;;
34775;SDS011;20989;52.566;13.346;2023-03-31T04:47:03;1.80;;;1.70;;
34775;SDS011;20989;52.566;13.346;2023-03-31T04:50:06;2.13;;;1.60;;
34775;SDS011;20989;52.566;13.346;2023-03-31T04:53:07;3.10;;;1.63;;
34775;SDS011;20989;52.566;13.346;2023-03-31T04:56:08;3.78;;;2.13;;
34775;SDS011;20989;52.566;13.346;2023-03-31T05:03:05;1.95;;;1.33;;
34775;SDS011;20989;52.566;13.346;2023-03-31T05:06:06;3.22;;;1.85;;
34775;SDS011;20989;52.566;13.346;2023-03-31T05:09:07;2.53;;;1.77;;
34775;SDS011;20989;52.566;13.346;2023-03-31T05:12:08;1.90;;;1.60;;
34775;SDS011;20989;52.566;13.346;2023-03-31T05:15:09;2.45;;;1.73;;
34775;SDS011;20989;52.566;13.346;2023-03-31T05:18:10;1.52;;;1.40;;
34775;SDS011;20989;52.566;13.346;2023-03-31T05:21:15;2.90;;;1.80;;
34775;SDS011;20989;52.566;13.346;2023-03-31T05:24:17;1.92;;;1.42;;
34775;SDS011;20989;52.566;13.346;2023-03-31T05:27:18;2.00;;;1.42;;
34775;SDS011;20989;52.566;13.346;2023-03-31T05:30:20;2.95;;;1.80;;
34775;SDS011;20989;52.566;13.346;2023-03-31T05:33:21;10.18;;;1.98;;
34775;SDS011;20989;52.566;13.346;2023-03-31T05:36:22;6.15;;;1.50;;
34775;SDS011;20989;52.566;13.346;2023-03-31T05:39:22;7.43;;;1.60;;
34775;SDS011;20989;52.566;13.346;2023-03-31T05:42:23;2.95;;;1.67;;
34775;SDS011;20989;52.566;13.346;2023-03-31T05:45:24;2.28;;;1.73;;
34775;SDS011;20989;52.566;13.346;2023-03-31T05:48:25;12.70;;;2.05;;
34775;SDS011;20989;52.566;13.346;2023-03-31T05:51:25;5.43;;;1.60;;
34775;SDS011;20989;52.566;13.346;2023-03-31T05:54:26;10.32;;;1.73;;
34775;SDS011;20989;52.566;13.346;2023-03-31T05:57:27;2.35;;;1.55;;
34775;SDS011;20989;52.566;13.346;2023-03-31T06:00:28;2.67;;;1.13;;
34775;SDS011;20989;52.566;13.346;2023-03-31T06:03:28;2.63;;;1.40;;
34775;SDS011;20989;52.566;13.346;2023-03-31T06:06:29;3.20;;;1.48;;
34775;SDS011;20989;52.566;13.346;2023-03-31T06:09:32;15.50;;;1.95;;
34775;SDS011;20989;52.566;13.346;2023-03-31T06:12:32;9.15;;;1.75;;
34775;SDS011;20989;52.566;13.346;2023-03-31T06:15:33;6.05;;;1.85;;
34775;SDS011;20989;52.566;13.346;2023-03-31T06:18:34;7.00;;;1.10;;
34775;SDS011;20989;52.566;13.346;2023-03-31T06:21:36;2.08;;;1.40;;
34775;SDS011;20989;52.566;13.346;2023-03-31T06:24:36;2.75;;;1.00;;
34775;SDS011;20989;52.566;13.346;2023-03-31T06:27:38;4.68;;;1.50;;
34775;SDS011;20989;52.566;13.346;2023-03-31T06:30:39;2.53;;;1.10;;
34775;SDS011;20989;52.566;13.346;2023-03-31T06:33:41;3.03;;;1.58;;
34775;SDS011;20989;52.566;13.346;2023-03-31T06:36:43;2.65;;;1.23;;
34775;SDS011;20989;52.566;13.346;2023-03-31T06:39:43;3.10;;;1.13;;
34775;SDS011;20989;52.566;13.346;2023-03-31T06:42:44;5.63;;;1.15;;
34775;SDS011;20989;52.566;13.346;2023-03-31T06:45:45;3.55;;;1.55;;
34775;SDS011;20989;52.566;13.346;2023-03-31T06:48:46;3.50;;;1.60;;
34775;SDS011;20989;52.566;13.346;2023-03-31T06:51:47;3.10;;;1.30;;
34775;SDS011;20989;52.566;13.346;2023-03-31T06:54:48;5.43;;;1.35;;
34775;SDS011;20989;52.566;13.346;2023-03-31T06:57:48;2.78;;;0.95;;
34775;SDS011;20989;52.566;13.346;2023-03-31T07:00:49;4.43;;;0.90;;
34775;SDS011;20989;52.566;13.346;2023-03-31T07:03:51;2.38;;;1.10;;
34775;SDS011;20989;52.566;13.346;2023-03-31T07:06:52;3.15;;;1.10;;
34775;SDS011;20989;52.566;13.346;2023-03-31T07:09:52;1.98;;;1.13;;
34775;SDS011;20989;52.566;13.346;2023-03-31T07:12:53;2.22;;;0.90;;
34775;SDS011;20989;52.566;13.346;2023-03-31T07:15:54;3.72;;;1.30;;
34775;SDS011;20989;52.566;13.346;2023-03-31T07:18:55;5.20;;;1.20;;
34775;SDS011;20989;52.566;13.346;2023-03-31T07:21:57;2.97;;;1.20;;
34775;SDS011;20989;52.566;13.346;2023-03-31T07:24:57;1.17;;;1.02;;
34775;SDS011;20989;52.566;13.346;2023-03-31T07:27:58;2.00;;;1.00;;
34775;SDS011;20989;52.566;13.346;2023-03-31T07:30:59;1.00;;;0.90;;
34775;SDS011;20989;52.566;13.346;2023-03-31T07:34:00;1.45;;;0.93;;
34775;SDS011;20989;52.566;13.346;2023-03-31T07:37:02;1.13;;;0.98;;
34775;SDS011;20989;52.566;13.346;2023-03-31T07:40:03;2.13;;;1.10;;
34775;SDS011;20989;52.566;13.346;2023-03-31T07:43:05;1.65;;;1.15;;
34775;SDS011;20989;52.566;13.346;2023-03-31T07:46:06;1.63;;;0.95;;
34775;SDS011;20989;52.566;13.346;2023-03-31T07:49:23;2.92;;;1.40;;
34775;SDS011;20989;52.566;13.346;2023-03-31T07:52:24;1.73;;;1.20;;
34775;SDS011;20989;52.566;13.346;2023-03-31T07:55:25;1.40;;;1.20;;
34775;SDS011;20989;52.566;13.346;2023-03-31T07:58:26;1.40;;;1.30;;
34775;SDS011;20989;52.566;13.346;2023-03-31T08:01:27;2.17;;;1.50;;
34775;SDS011;20989;52.566;13.346;2023-03-31T08:04:28;1.63;;;1.27;;
34775;SDS011;20989;52.566;13.346;2023-03-31T08:07:32;2.63;;;1.60;;
34775;SDS011;20989;52.566;13.346;2023-03-31T08:10:34;3.85;;;1.63;;
34775;SDS011;20989;52.566;13.346;2023-03-31T08:13:34;3.75;;;1.83;;
34775;SDS011;20989;52.566;13.346;2023-03-31T08:16:35;1.85;;;1.73;;
34775;SDS011;20989;52.566;13.346;2023-03-31T08:19:36;2.38;;;1.20;;
34775;SDS011;20989;52.566;13.346;2023-03-31T08:22:39;2.25;;;1.25;;
34775;SDS011;20989;52.566;13.346;2023-03-31T08:25:40;4.15;;;1.35;;
34775;SDS011;20989;52.566;13.346;2023-03-31T08:28:41;6.95;;;1.35;;
34775;SDS011;20989;52.566;13.346;2023-03-31T08:31:41;5.10;;;1.52;;
34775;SDS011;20989;52.566;13.346;2023-03-31T08:34:42;4.07;;;1.80;;
34775;SDS011;20989;52.566;13.346;2023-03-31T08:37:43;3.58;;;1.30;;
34775;SDS011;20989;52.566;13.346;2023-03-31T08:40:44;3.47;;;1.23;;
34775;SDS011;20989;52.566;13.346;2023-03-31T08:43:45;3.17;;;1.25;;
34775;SDS011;20989;52.566;13.346;2023-03-31T08:46:47;1.50;;;1.40;;
34775;SDS011;20989;52.566;13.346;2023-03-31T08:49:52;3.13;;;0.98;;
34775;SDS011;20989;52.566;13.346;2023-03-31T08:53:03;3.65;;;1.27;;
34775;SDS011;20989;52.566;13.346;2023-03-31T08:56:06;2.65;;;1.30;;
34775;SDS011;20989;52.566;13.346;2023-03-31T09:02:50;4.95;;;1.15;;
34775;SDS011;20989;52.566;13.346;2023-03-31T09:06:16;1.90;;;1.52;;
34775;SDS011;20989;52.566;13.346;2023-03-31T09:09:36;6.18;;;1.80;;
34775;SDS011;20989;52.566;13.346;2023-03-31T09:13:01;3.72;;;1.38;;
34775;SDS011;20989;52.566;13.346;2023-03-31T09:19:23;6.47;;;2.15;;
34775;SDS011;20989;52.566;13.346;2023-03-31T09:25:33;8.35;;;2.25;;
34775;SDS011;20989;52.566;13.346;2023-03-31T09:28:38;11.63;;;2.00;;
34775;SDS011;20989;52.566;13.346;2023-03-31T09:31:39;6.82;;;2.10;;
34775;SDS011;20989;52.566;13.346;2023-03-31T09:34:43;3.20;;;2.30;;
34775;SDS011;20989;52.566;13.346;2023-03-31T09:37:46;5.57;;;2.60;;
34775;SDS011;20989;52.566;13.346;2023-03-31T09:40:48;6.45;;;3.55;;
34775;SDS011;20989;52.566;13.346;2023-03-31T09:43:49;9.32;;;4.80;;
34775;SDS011;20989;52.566;13.346;2023-03-31T09:46:50;6.15;;;3.88;;
34775;SDS011;20989;52.566;13.346;2023-03-31T09:49:53;8.43;;;4.65;;
34775;SDS011;20989;52.566;13.346;2023-03-31T09:52:57;10.38;;;4.55;;
34775;SDS011;20989;52.566;13.346;2023-03-31T09:56:00;12.07;;;4.47;;
34775;SDS011;20989;52.566;13.346;2023-03-31T09:59:02;12.00;;;4.43;;
34775;SDS011;20989;52.566;13.346;2023-03-31T10:02:05;9.82;;;5.28;;
34775;SDS011;20989;52.566;13.346;2023-03-31T10:05:48;11.68;;;6.38;;
34775;SDS011;20989;52.566;13.346;2023-03-31T10:08:53;15.43;;;8.20;;
34775;SDS011;20989;52.566;13.346;2023-03-31T10:11:58;12.05;;;6.40;;
34775;SDS011;20989;52.566;13.346;2023-03-31T10:15:14;18.88;;;6.90;;
34775;SDS011;20989;52.566;13.346;2023-03-31T10:18:19;11.82;;;7.43;;
34775;SDS011;20989;52.566;13.346;2023-03-31T10:21:34;27.65;;;6.63;;
34775;SDS011;20989;52.566;13.346;2023-03-31T10:24:40;13.23;;;6.03;;
34775;SDS011;20989;52.566;13.346;2023-03-31T10:27:44;15.77;;;6.88;;
34775;SDS011;20989;52.566;13.346;2023-03-31T10:30:49;29.02;;;13.90;;
34775;SDS011;20989;52.566;13.346;2023-03-31T10:33:55;19.07;;;8.53;;
34775;SDS011;20989;52.566;13.346;2023-03-31T10:36:57;9.88;;;6.07;;
34775;SDS011;20989;52.566;13.346;2023-03-31T10:40:02;9.60;;;5.95;;
34775;SDS011;20989;52.566;13.346;2023-03-31T10:43:18;13.02;;;5.78;;
34775;SDS011;20989;52.566;13.346;2023-03-31T10:46:41;9.13;;;5.47;;
34775;SDS011;20989;52.566;13.346;2023-03-31T10:49:47;9.98;;;5.22;;
34775;SDS011;20989;52.566;13.346;2023-03-31T10:53:00;14.80;;;5.97;;
34775;SDS011;20989;52.566;13.346;2023-03-31T11:06:38;9.10;;;5.17;;
34775;SDS011;20989;52.566;13.346;2023-03-31T11:10:07;14.57;;;5.45;;
34775;SDS011;20989;52.566;13.346;2023-03-31T11:16:52;10.10;;;5.00;;
34775;SDS011;20989;52.566;13.346;2023-03-31T11:20:11;7.32;;;4.32;;
34775;SDS011;20989;52.566;13.346;2023-03-31T11:43:35;6.93;;;3.75;;
34775;SDS011;20989;52.566;13.346;2023-03-31T11:46:45;6.65;;;3.90;;
34775;SDS011;20989;52.566;13.346;2023-03-31T11:49:54;5.53;;;3.60;;
34775;SDS011;20989;52.566;13.346;2023-03-31T11:53:14;10.95;;;4.20;;
34775;SDS011;20989;52.566;13.346;2023-03-31T11:59:22;8.95;;;3.58;;
34775;SDS011;20989;52.566;13.346;2023-03-31T12:05:44;4.75;;;2.88;;
34775;SDS011;20989;52.566;13.346;2023-03-31T12:09:07;4.90;;;2.95;;
34775;SDS011;20989;52.566;13.346;2023-03-31T12:12:22;7.03;;;3.47;;
34775;SDS011;20989;52.566;13.346;2023-03-31T12:15:36;7.75;;;3.40;;
34775;SDS011;20989;52.566;13.346;2023-03-31T12:19:03;7.70;;;3.25;;
34775;SDS011;20989;52.566;13.346;2023-03-31T12:25:14;6.28;;;3.08;;
34775;SDS011;20989;52.566;13.346;2023-03-31T12:28:18;5.28;;;3.17;;
34775;SDS011;20989;52.566;13.346;2023-03-31T12:31:20;2.92;;;2.20;;
34775;SDS011;20989;52.566;13.346;2023-03-31T12:34:23;5.80;;;3.10;;
34775;SDS011;20989;52.566;13.346;2023-03-31T12:47:42;8.07;;;3.13;;
34775;SDS011;20989;52.566;13.346;2023-03-31T12:54:35;5.60;;;4.00;;
34775;SDS011;20989;52.566;13.346;2023-03-31T13:01:48;4.65;;;3.63;;
34775;SDS011;20989;52.566;13.346;2023-03-31T13:12:27;7.35;;;3.95;;
34775;SDS011;20989;52.566;13.346;2023-03-31T13:15:30;10.95;;;3.45;;
34775;SDS011;20989;52.566;13.346;2023-03-31T13:18:32;5.57;;;3.45;;
34775;SDS011;20989;52.566;13.346;2023-03-31T13:21:55;4.55;;;3.40;;
34775;SDS011;20989;52.566;13.346;2023-03-31T13:28:41;12.20;;;4.20;;
34775;SDS011;20989;52.566;13.346;2023-03-31T13:35:03;7.30;;;4.18;;
34775;SDS011;20989;52.566;13.346;2023-03-31T13:42:13;10.50;;;3.90;;
34775;SDS011;20989;52.566;13.346;2023-03-31T13:48:25;5.50;;;3.33;;
34775;SDS011;20989;52.566;13.346;2023-03-31T13:51:30;5.22;;;3.20;;
34775;SDS011;20989;52.566;13.346;2023-03-31T13:54:49;3.97;;;3.40;;
34775;SDS011;20989;52.566;13.346;2023-03-31T14:08:19;14.77;;;6.30;;
34775;SDS011;20989;52.566;13.346;2023-03-31T14:11:39;19.35;;;8.40;;
34775;SDS011;20989;52.566;13.346;2023-03-31T14:14:40;16.10;;;9.07;;
34775;SDS011;20989;52.566;13.346;2023-03-31T14:17:41;18.05;;;9.02;;
34775;SDS011;20989;52.566;13.346;2023-03-31T14:37:18;13.52;;;8.15;;
34775;SDS011;20989;52.566;13.346;2023-03-31T14:40:22;12.85;;;7.97;;
34775;SDS011;20989;52.566;13.346;2023-03-31T14:43:25;30.77;;;14.73;;
34775;SDS011;20989;52.566;13.346;2023-03-31T14:46:29;29.38;;;13.82;;
34775;SDS011;20989;52.566;13.346;2023-03-31T14:49:35;23.70;;;11.30;;
34775;SDS011;20989;52.566;13.346;2023-03-31T14:52:37;18.75;;;11.05;;
34775;SDS011;20989;52.566;13.346;2023-03-31T14:55:38;28.40;;;14.07;;
34775;SDS011;20989;52.566;13.346;2023-03-31T14:58:46;25.77;;;12.93;;
34775;SDS011;20989;52.566;13.346;2023-03-31T15:01:49;24.73;;;12.70;;
34775;SDS011;20989;52.566;13.346;2023-03-31T15:04:51;22.15;;;12.50;;
34775;SDS011;20989;52.566;13.346;2023-03-31T15:08:01;24.90;;;11.98;;
34775;SDS011;20989;52.566;13.346;2023-03-31T15:11:05;30.00;;;14.25;;
34775;SDS011;20989;52.566;13.346;2023-03-31T15:14:08;44.53;;;18.75;;
34775;SDS011;20989;52.566;13.346;2023-03-31T15:17:20;40.00;;;17.27;;
34775;SDS011;20989;52.566;13.346;2023-03-31T15:20:36;40.55;;;16.45;;
34775;SDS011;20989;52.566;13.346;2023-03-31T15:23:39;37.55;;;15.73;;
34775;SDS011;20989;52.566;13.346;2023-03-31T15:26:42;26.27;;;14.40;;
34775;SDS011;20989;52.566;13.346;2023-03-31T15:29:50;29.25;;;13.93;;
34775;SDS011;20989;52.566;13.346;2023-03-31T15:32:54;30.75;;;14.88;;
34775;SDS011;20989;52.566;13.346;2023-03-31T15:35:55;36.45;;;14.75;;
34775;SDS011;20989;52.566;13.346;2023-03-31T15:38:56;26.45;;;14.13;;
34775;SDS011;20989;52.566;13.346;2023-03-31T15:42:01;27.13;;;13.15;;
34775;SDS011;20989;52.566;13.346;2023-03-31T15:48:22;24.02;;;11.90;;
34775;SDS011;20989;52.566;13.346;2023-03-31T15:51:29;25.63;;;11.70;;
34775;SDS011;20989;52.566;13.346;2023-03-31T15:54:40;25.55;;;12.18;;
34775;SDS011;20989;52.566;13.346;2023-03-31T15:57:40;27.13;;;11.40;;
34775;SDS011;20989;52.566;13.346;2023-03-31T16:00:44;26.95;;;10.52;;
34775;SDS011;20989;52.566;13.346;2023-03-31T16:06:54;21.63;;;9.85;;
34775;SDS011;20989;52.566;13.346;2023-03-31T16:10:06;24.38;;;9.60;;
34775;SDS011;20989;52.566;13.346;2023-03-31T16:13:16;19.80;;;10.25;;
34775;SDS011;20989;52.566;13.346;2023-03-31T16:16:22;19.33;;;9.10;;
34775;SDS011;20989;52.566;13.346;2023-03-31T16:19:26;20.50;;;8.48;;
34775;SDS011;20989;52.566;13.346;2023-03-31T16:22:34;21.02;;;9.50;;
34775;SDS011;20989;52.566;13.346;2023-03-31T16:25:39;16.42;;;7.45;;
34775;SDS011;20989;52.566;13.346;2023-03-31T16:28:41;13.88;;;7.50;;
34775;SDS011;20989;52.566;13.346;2023-03-31T16:32:05;17.67;;;8.35;;
34775;SDS011;20989;52.566;13.346;2023-03-31T16:35:07;16.45;;;6.68;;
34775;SDS011;20989;52.566;13.346;2023-03-31T16:38:09;16.38;;;7.03;;
34775;SDS011;20989;52.566;13.346;2023-03-31T16:41:11;13.23;;;6.70;;
34775;SDS011;20989;52.566;13.346;2023-03-31T16:44:14;11.77;;;6.78;;
34775;SDS011;20989;52.566;13.346;2023-03-31T16:47:15;9.75;;;6.15;;
34775;SDS011;20989;52.566;13.346;2023-03-31T16:50:16;15.05;;;6.65;;
34775;SDS011;20989;52.566;13.346;2023-03-31T16:53:17;18.35;;;6.97;;
34775;SDS011;20989;52.566;13.346;2023-03-31T16:56:21;12.10;;;5.70;;
34775;SDS011;20989;52.566;13.346;2023-03-31T16:59:22;13.43;;;5.78;;
34775;SDS011;20989;52.566;13.346;2023-03-31T17:02:23;14.13;;;6.53;;
34775;SDS011;20989;52.566;13.346;2023-03-31T17:05:24;11.30;;;6.28;;
34775;SDS011;20989;52.566;13.346;2023-03-31T17:08:26;13.27;;;5.13;;
34775;SDS011;20989;52.566;13.346;2023-03-31T17:11:27;16.20;;;5.90;;
34775;SDS011;20989;52.566;13.346;2023-03-31T17:14:29;9.98;;;5.20;;
34775;SDS011;20989;52.566;13.346;2023-03-31T17:17:30;9.52;;;5.38;;
34775;SDS011;20989;52.566;13.346;2023-03-31T17:20:31;12.98;;;4.70;;
34775;SDS011;20989;52.566;13.346;2023-03-31T17:23:33;7.07;;;4.93;;
34775;SDS011;20989;52.566;13.346;2023-03-31T17:26:35;9.00;;;4.53;;
34775;SDS011;20989;52.566;13.346;2023-03-31T17:29:37;7.35;;;4.45;;
34775;SDS011;20989;52.566;13.346;2023-03-31T17:32:38;7.18;;;4.45;;
34775;SDS011;20989;52.566;13.346;2023-03-31T17:35:40;17.92;;;5.05;;
34775;SDS011;20989;52.566;13.346;2023-03-31T17:38:41;9.10;;;4.30;;
34775;SDS011;20989;52.566;13.346;2023-03-31T17:41:43;8.98;;;4.18;;
34775;SDS011;20989;52.566;13.346;2023-03-31T17:44:44;8.25;;;3.90;;
34775;SDS011;20989;52.566;13.346;2023-03-31T17:47:46;6.95;;;4.72;;
34775;SDS011;20989;52.566;13.346;2023-03-31T17:50:47;6.82;;;3.78;;
34775;SDS011;20989;52.566;13.346;2023-03-31T17:53:48;8.15;;;4.10;;
34775;SDS011;20989;52.566;13.346;2023-03-31T17:56:48;4.63;;;3.47;;
34775;SDS011;20989;52.566;13.346;2023-03-31T17:59:49;7.60;;;4.25;;
34775;SDS011;20989;52.566;13.346;2023-03-31T18:02:50;5.95;;;3.72;;
34775;SDS011;20989;52.566;13.346;2023-03-31T18:05:51;8.98;;;4.10;;
34775;SDS011;20989;52.566;13.346;2023-03-31T18:08:51;9.88;;;3.38;;
34775;SDS011;20989;52.566;13.346;2023-03-31T18:11:54;6.60;;;3.10;;
34775;SDS011;20989;52.566;13.346;2023-03-31T18:14:57;5.47;;;3.60;;
34775;SDS011;20989;52.566;13.346;2023-03-31T18:17:58;8.15;;;2.67;;
34775;SDS011;20989;52.566;13.346;2023-03-31T18:21:05;8.55;;;2.92;;
34775;SDS011;20989;52.566;13.346;2023-03-31T18:24:07;6.85;;;3.00;;
34775;SDS011;20989;52.566;13.346;2023-03-31T18:27:08;8.25;;;2.75;;
34775;SDS011;20989;52.566;13.346;2023-03-31T18:30:10;9.52;;;3.22;;
34775;SDS011;20989;52.566;13.346;2023-03-31T18:33:12;5.65;;;2.72;;
34775;SDS011;20989;52.566;13.346;2023-03-31T18:36:14;5.07;;;2.58;;
34775;SDS011;20989;52.566;13.346;2023-03-31T18:39:23;5.20;;;3.05;;
34775;SDS011;20989;52.566;13.346;2023-03-31T18:42:24;2.78;;;2.50;;
34775;SDS011;20989;52.566;13.346;2023-03-31T18:45:25;6.20;;;2.47;;
34775;SDS011;20989;52.566;13.346;2023-03-31T18:48:27;2.40;;;2.20;;
34775;SDS011;20989;52.566;13.346;2023-03-31T18:51:28;3.45;;;2.83;;
34775;SDS011;20989;52.566;13.346;2023-03-31T18:54:28;4.72;;;3.25;;
34775;SDS011;20989;52.566;13.346;2023-03-31T18:57:29;5.95;;;2.28;;
34775;SDS011;20989;52.566;13.346;2023-03-31T19:00:30;4.15;;;2.60;;
34775;SDS011;20989;52.566;13.346;2023-03-31T19:03:31;4.15;;;2.67;;
34775;SDS011;20989;52.566;13.346;2023-03-31T19:06:31;3.15;;;2.10;;
34775;SDS011;20989;52.566;13.346;2023-03-31T19:09:32;4.35;;;2.10;;
34775;SDS011;20989;52.566;13.346;2023-03-31T19:12:33;2.42;;;2.22;;
34775;SDS011;20989;52.566;13.346;2023-03-31T19:15:33;3.05;;;2.45;;
34775;SDS011;20989;52.566;13.346;2023-03-31T19:18:36;4.72;;;1.90;;
34775;SDS011;20989;52.566;13.346;2023-03-31T19:21:37;2.80;;;2.05;;
34775;SDS011;20989;52.566;13.346;2023-03-31T19:24:38;3.20;;;2.33;;
34775;SDS011;20989;52.566;13.346;2023-03-31T19:27:39;2.67;;;1.50;;
34775;SDS011;20989;52.566;13.346;2023-03-31T19:30:40;2.45;;;2.08;;
34775;SDS011;20989;52.566;13.346;2023-03-31T19:33:41;2.08;;;1.63;;
34775;SDS011;20989;52.566;13.346;2023-03-31T19:36:42;2.05;;;1.85;;
34775;SDS011;20989;52.566;13.346;2023-03-31T19:39:43;1.85;;;1.50;;
34775;SDS011;20989;52.566;13.346;2023-03-31T19:42:43;2.20;;;1.83;;
34775;SDS011;20989;52.566;13.346;2023-03-31T19:45:44;1.98;;;1.60;;
34775;SDS011;20989;52.566;13.346;2023-03-31T19:48:49;3.75;;;1.55;;
34775;SDS011;20989;52.566;13.346;2023-03-31T19:51:50;3.35;;;1.95;;
34775;SDS011;20989;52.566;13.346;2023-03-31T19:54:51;2.50;;;1.80;;
34775;SDS011;20989;52.566;13.346;2023-03-31T19:57:52;1.98;;;1.70;;
34775;SDS011;20989;52.566;13.346;2023-03-31T20:00:53;1.70;;;1.60;;
34775;SDS011;20989;52.566;13.346;2023-03-31T20:03:55;1.92;;;1.70;;
34775;SDS011;20989;52.566;13.346;2023-03-31T20:06:56;1.52;;;1.42;;
34775;SDS011;20989;52.566;13.346;2023-03-31T20:09:56;3.15;;;1.90;;
34775;SDS011;20989;52.566;13.346;2023-03-31T20:12:57;2.10;;;1.88;;
34775;SDS011;20989;52.566;13.346;2023-03-31T20:15:59;2.03;;;1.70;;
34775;SDS011;20989;52.566;13.346;2023-03-31T20:19:13;1.88;;;1.40;;
34775;SDS011;20989;52.566;13.346;2023-03-31T20:22:15;2.13;;;1.50;;
34775;SDS011;20989;52.566;13.346;2023-03-31T20:25:16;1.63;;;1.52;;
34775;SDS011;20989;52.566;13.346;2023-03-31T20:28:17;1.95;;;1.42;;
34775;SDS011;20989;52.566;13.346;2023-03-31T20:31:18;1.45;;;1.35;;
34775;SDS011;20989;52.566;13.346;2023-03-31T20:34:21;1.75;;;1.60;;
34775;SDS011;20989;52.566;13.346;2023-03-31T20:37:22;1.88;;;1.33;;
34775;SDS011;20989;52.566;13.346;2023-03-31T20:40:23;1.98;;;1.15;;
34775;SDS011;20989;52.566;13.346;2023-03-31T20:43:24;2.83;;;1.60;;
34775;SDS011;20989;52.566;13.346;2023-03-31T20:46:25;1.40;;;1.30;;
34775;SDS011;20989;52.566;13.346;2023-03-31T20:49:27;1.58;;;1.48;;
34775;SDS011;20989;52.566;13.346;2023-03-31T20:52:27;1.52;;;1.40;;
34775;SDS011;20989;52.566;13.346;2023-03-31T20:55:28;1.67;;;1.25;;
34775;SDS011;20989;52.566;13.346;2023-03-31T20:58:29;1.08;;;0.98;;
34775;SDS011;20989;52.566;13.346;2023-03-31T21:01:30;1.95;;;1.25;;
34775;SDS011;20989;52.566;13.346;2023-03-31T21:04:32;1.02;;;0.93;;